LETO METAR and TAF | Updated Today

LETO METAR

Torrejón Airport

Observation time: 29 min. ago

LETO 080600Z 26014G26KT 9999 FEW043 08/02 Q1012 NOSIG

Need help? Read our tutorial on how to read METARs or read the parsed version below.

Torrejón Airport (LETO) METAR

  • Weather conditions on Wed, 08 Dec 2021 06:00:00 +0000 (29 min. ago):
  • Present conditions: Dry
  • Clouds: A few at 1311 meters
  • Visibility: Greater than 10 km
  • Wind: 260 degrees at 14 knots
  • Temperature: 8 celsius
  • Dew point: 2 celsius
  • Pressure: 1012 millibars
  • Remarks: None


Useful to know...

LETO TAF

Torrejón Airport

TAF LETO 080500Z 0806/0906 26016KT 9999 SCT040 TX10/0815Z TN03/0906Z PROB40 TEMPO 0806/0818 27018G32KT PROB40 TEMPO 0813/0818 27020G35KT
Observation time: 89 min. ago
Need help? Read our tutorial on how to read TAFs or read the parsed version below.

Parsed version of TAF for Torrejón Airport (LETO)

  • From 08 December at 06:00 UTC, to day 09 of the month at 06:00 UTC
  • Clouds: Scattered at 1219 meters
  • Visibility: Greater than 10 km
  • Wind: 260 degrees at 16
  • Expected to arise temporarily, from 08 December at 06:00 UTC, to day 08 of the month at 18:00 UTC
    Probability of 40%
  • Wind: 270 degrees at 18
  • Expected to arise temporarily, from 08 December at 13:00 UTC, to day 08 of the month at 18:00 UTC
    Probability of 40%
  • Wind: 270 degrees at 20